sensor_id;sensor_type;location;lat;lon;timestamp;temperature;humidity
11009;DHT22;5557;51.670;7.788;2023-06-14T00:01:50;18.50;1.00
11009;DHT22;5557;51.670;7.788;2023-06-14T00:04:20;18.40;1.00
11009;DHT22;5557;51.670;7.788;2023-06-14T00:06:47;18.40;1.00
11009;DHT22;5557;51.670;7.788;2023-06-14T00:09:17;18.30;1.00
11009;DHT22;5557;51.670;7.788;2023-06-14T00:11:44;18.40;1.00
11009;DHT22;5557;51.670;7.788;2023-06-14T00:14:11;18.30;1.00
11009;DHT22;5557;51.670;7.788;2023-06-14T00:16:39;18.30;1.00
11009;DHT22;5557;51.670;7.788;2023-06-14T00:19:09;18.30;1.00
11009;DHT22;5557;51.670;7.788;2023-06-14T00:21:38;18.30;1.00
11009;DHT22;5557;51.670;7.788;2023-06-14T00:24:05;18.20;1.00
11009;DHT22;5557;51.670;7.788;2023-06-14T00:26:32;18.20;1.00
11009;DHT22;5557;51.670;7.788;2023-06-14T00:28:59;18.10;1.00
11009;DHT22;5557;51.670;7.788;2023-06-14T00:31:26;18.00;1.00
11009;DHT22;5557;51.670;7.788;2023-06-14T00:33:53;18.00;1.00
11009;DHT22;5557;51.670;7.788;2023-06-14T00:36:20;18.10;1.00
11009;DHT22;5557;51.670;7.788;2023-06-14T00:38:47;18.00;1.00
11009;DHT22;5557;51.670;7.788;2023-06-14T00:41:15;18.00;1.00
11009;DHT22;5557;51.670;7.788;2023-06-14T00:43:42;17.90;1.00
11009;DHT22;5557;51.670;7.788;2023-06-14T00:46:09;17.90;1.00
11009;DHT22;5557;51.670;7.788;2023-06-14T00:48:36;17.90;1.00
11009;DHT22;5557;51.670;7.788;2023-06-14T00:51:03;17.90;1.00
11009;DHT22;5557;51.670;7.788;2023-06-14T00:53:31;17.80;1.00
11009;DHT22;5557;51.670;7.788;2023-06-14T00:56:01;17.70;1.00
11009;DHT22;5557;51.670;7.788;2023-06-14T00:58:28;17.70;1.00
11009;DHT22;5557;51.670;7.788;2023-06-14T01:00:55;17.60;1.00
11009;DHT22;5557;51.670;7.788;2023-06-14T01:03:23;17.60;1.00
11009;DHT22;5557;51.670;7.788;2023-06-14T01:05:59;17.60;1.00
11009;DHT22;5557;51.670;7.788;2023-06-14T01:08:50;17.60;1.00
11009;DHT22;5557;51.670;7.788;2023-06-14T01:11:28;17.50;1.00
11009;DHT22;5557;51.670;7.788;2023-06-14T01:14:00;17.50;1.00
11009;DHT22;5557;51.670;7.788;2023-06-14T01:16:29;17.40;1.00
11009;DHT22;5557;51.670;7.788;2023-06-14T01:18:58;17.40;1.00
11009;DHT22;5557;51.670;7.788;2023-06-14T01:21:25;17.30;1.00
11009;DHT22;5557;51.670;7.788;2023-06-14T01:23:53;17.30;1.00
11009;DHT22;5557;51.670;7.788;2023-06-14T01:26:23;17.30;1.00
11009;DHT22;5557;51.670;7.788;2023-06-14T01:28:50;17.30;1.00
11009;DHT22;5557;51.670;7.788;2023-06-14T01:31:20;17.20;1.00
11009;DHT22;5557;51.670;7.788;2023-06-14T01:33:50;17.20;1.00
11009;DHT22;5557;51.670;7.788;2023-06-14T01:36:22;17.20;1.00
11009;DHT22;5557;51.670;7.788;2023-06-14T01:38:53;17.10;1.00
11009;DHT22;5557;51.670;7.788;2023-06-14T01:41:23;17.10;1.00
11009;DHT22;5557;51.670;7.788;2023-06-14T01:43:50;17.20;1.00
11009;DHT22;5557;51.670;7.788;2023-06-14T01:46:19;17.10;1.00
11009;DHT22;5557;51.670;7.788;2023-06-14T01:48:47;17.10;1.00
11009;DHT22;5557;51.670;7.788;2023-06-14T01:51:14;17.00;1.00
11009;DHT22;5557;51.670;7.788;2023-06-14T01:53:41;17.00;1.00
11009;DHT22;5557;51.670;7.788;2023-06-14T01:56:08;17.00;1.00
11009;DHT22;5557;51.670;7.788;2023-06-14T01:58:35;16.90;1.00
11009;DHT22;5557;51.670;7.788;2023-06-14T02:01:02;16.80;1.00
11009;DHT22;5557;51.670;7.788;2023-06-14T02:03:29;16.80;1.00
11009;DHT22;5557;51.670;7.788;2023-06-14T02:05:57;16.70;1.00
11009;DHT22;5557;51.670;7.788;2023-06-14T02:08:24;16.60;1.00
11009;DHT22;5557;51.670;7.788;2023-06-14T02:10:51;16.60;1.00
11009;DHT22;5557;51.670;7.788;2023-06-14T02:13:18;16.60;1.00
11009;DHT22;5557;51.670;7.788;2023-06-14T02:15:45;16.60;1.00
11009;DHT22;5557;51.670;7.788;2023-06-14T02:18:13;16.60;1.00
11009;DHT22;5557;51.670;7.788;2023-06-14T02:20:40;16.50;1.00
11009;DHT22;5557;51.670;7.788;2023-06-14T02:23:07;16.50;1.00
11009;DHT22;5557;51.670;7.788;2023-06-14T02:25:34;16.50;1.00
11009;DHT22;5557;51.670;7.788;2023-06-14T02:28:02;16.40;1.00
11009;DHT22;5557;51.670;7.788;2023-06-14T02:30:29;16.30;1.00
11009;DHT22;5557;51.670;7.788;2023-06-14T02:32:56;16.20;1.00
11009;DHT22;5557;51.670;7.788;2023-06-14T02:35:24;16.20;1.00
11009;DHT22;5557;51.670;7.788;2023-06-14T02:37:53;16.20;1.00
11009;DHT22;5557;51.670;7.788;2023-06-14T02:40:21;16.20;1.00
11009;DHT22;5557;51.670;7.788;2023-06-14T02:42:49;16.10;1.00
11009;DHT22;5557;51.670;7.788;2023-06-14T02:45:17;16.10;1.00
11009;DHT22;5557;51.670;7.788;2023-06-14T02:47:44;16.10;1.00
11009;DHT22;5557;51.670;7.788;2023-06-14T02:50:14;16.00;1.00
11009;DHT22;5557;51.670;7.788;2023-06-14T02:52:41;16.00;1.00
11009;DHT22;5557;51.670;7.788;2023-06-14T02:55:11;16.00;1.00
11009;DHT22;5557;51.670;7.788;2023-06-14T02:57:38;16.00;1.00
11009;DHT22;5557;51.670;7.788;2023-06-14T03:00:07;16.00;1.00
11009;DHT22;5557;51.670;7.788;2023-06-14T03:02:41;16.00;1.00
11009;DHT22;5557;51.670;7.788;2023-06-14T03:05:16;16.00;1.00
11009;DHT22;5557;51.670;7.788;2023-06-14T03:07:43;16.00;1.00
11009;DHT22;5557;51.670;7.788;2023-06-14T03:10:12;16.00;1.00
11009;DHT22;5557;51.670;7.788;2023-06-14T03:12:40;16.00;1.00
11009;DHT22;5557;51.670;7.788;2023-06-14T03:15:08;16.00;1.00
11009;DHT22;5557;51.670;7.788;2023-06-14T03:17:35;15.90;1.00
11009;DHT22;5557;51.670;7.788;2023-06-14T03:20:06;15.80;1.00
11009;DHT22;5557;51.670;7.788;2023-06-14T03:22:34;15.80;1.00
11009;DHT22;5557;51.670;7.788;2023-06-14T03:25:01;15.80;1.00
11009;DHT22;5557;51.670;7.788;2023-06-14T03:27:32;15.80;1.00
11009;DHT22;5557;51.670;7.788;2023-06-14T03:29:59;15.70;1.00
11009;DHT22;5557;51.670;7.788;2023-06-14T03:32:26;15.80;1.00
11009;DHT22;5557;51.670;7.788;2023-06-14T03:34:53;15.80;1.00
11009;DHT22;5557;51.670;7.788;2023-06-14T03:37:20;15.80;1.00
11009;DHT22;5557;51.670;7.788;2023-06-14T03:39:47;15.80;1.00
11009;DHT22;5557;51.670;7.788;2023-06-14T03:42:15;15.80;1.00
11009;DHT22;5557;51.670;7.788;2023-06-14T03:44:42;15.80;1.00
11009;DHT22;5557;51.670;7.788;2023-06-14T03:47:09;15.90;1.00
11009;DHT22;5557;51.670;7.788;2023-06-14T03:49:36;16.30;1.00
11009;DHT22;5557;51.670;7.788;2023-06-14T03:52:04;16.90;1.00
11009;DHT22;5557;51.670;7.788;2023-06-14T03:54:31;17.40;1.00
11009;DHT22;5557;51.670;7.788;2023-06-14T03:57:19;17.80;1.00
11009;DHT22;5557;51.670;7.788;2023-06-14T03:59:49;18.20;1.00
11009;DHT22;5557;51.670;7.788;2023-06-14T04:02:16;18.60;1.00
11009;DHT22;5557;51.670;7.788;2023-06-14T04:04:46;18.80;1.00
11009;DHT22;5557;51.670;7.788;2023-06-14T04:07:13;19.00;1.00
11009;DHT22;5557;51.670;7.788;2023-06-14T04:09:40;19.30;1.00
11009;DHT22;5557;51.670;7.788;2023-06-14T04:12:09;19.50;1.00
11009;DHT22;5557;51.670;7.788;2023-06-14T04:14:39;19.80;1.00
11009;DHT22;5557;51.670;7.788;2023-06-14T04:17:07;20.10;1.00
11009;DHT22;5557;51.670;7.788;2023-06-14T04:19:34;20.40;1.00
11009;DHT22;5557;51.670;7.788;2023-06-14T04:22:01;20.70;1.00
11009;DHT22;5557;51.670;7.788;2023-06-14T04:24:29;21.10;1.00
11009;DHT22;5557;51.670;7.788;2023-06-14T04:26:59;21.10;1.00
11009;DHT22;5557;51.670;7.788;2023-06-14T04:29:28;20.80;1.00
11009;DHT22;5557;51.670;7.788;2023-06-14T04:31:56;21.20;1.00
11009;DHT22;5557;51.670;7.788;2023-06-14T04:34:27;21.20;1.00
11009;DHT22;5557;51.670;7.788;2023-06-14T04:37:00;21.30;1.00
11009;DHT22;5557;51.670;7.788;2023-06-14T04:39:29;21.50;1.00
11009;DHT22;5557;51.670;7.788;2023-06-14T04:41:56;21.30;1.00
11009;DHT22;5557;51.670;7.788;2023-06-14T04:44:24;21.60;1.00
11009;DHT22;5557;51.670;7.788;2023-06-14T04:46:57;21.70;1.00
11009;DHT22;5557;51.670;7.788;2023-06-14T04:49:27;21.10;1.00
11009;DHT22;5557;51.670;7.788;2023-06-14T04:51:56;20.90;1.00
11009;DHT22;5557;51.670;7.788;2023-06-14T04:54:29;21.10;1.00
11009;DHT22;5557;51.670;7.788;2023-06-14T04:56:58;21.50;1.00
11009;DHT22;5557;51.670;7.788;2023-06-14T04:59:26;21.40;1.00
11009;DHT22;5557;51.670;7.788;2023-06-14T05:01:53;22.00;1.00
11009;DHT22;5557;51.670;7.788;2023-06-14T05:04:23;22.20;1.00
11009;DHT22;5557;51.670;7.788;2023-06-14T05:06:52;21.80;1.00
11009;DHT22;5557;51.670;7.788;2023-06-14T05:09:21;22.50;1.00
11009;DHT22;5557;51.670;7.788;2023-06-14T05:11:48;23.00;1.00
11009;DHT22;5557;51.670;7.788;2023-06-14T05:14:17;23.10;1.00
11009;DHT22;5557;51.670;7.788;2023-06-14T05:16:45;22.30;1.00
11009;DHT22;5557;51.670;7.788;2023-06-14T05:19:12;22.40;1.00
11009;DHT22;5557;51.670;7.788;2023-06-14T05:21:39;22.70;1.00
11009;DHT22;5557;51.670;7.788;2023-06-14T05:24:09;22.70;1.00
11009;DHT22;5557;51.670;7.788;2023-06-14T05:26:36;22.50;1.00
11009;DHT22;5557;51.670;7.788;2023-06-14T05:29:03;22.50;1.00
11009;DHT22;5557;51.670;7.788;2023-06-14T05:31:30;22.60;1.00
11009;DHT22;5557;51.670;7.788;2023-06-14T05:33:58;22.40;1.00
11009;DHT22;5557;51.670;7.788;2023-06-14T05:36:25;22.20;1.00
11009;DHT22;5557;51.670;7.788;2023-06-14T05:38:54;22.30;1.00
11009;DHT22;5557;51.670;7.788;2023-06-14T05:41:28;21.50;1.00
11009;DHT22;5557;51.670;7.788;2023-06-14T05:43:55;21.50;1.00
11009;DHT22;5557;51.670;7.788;2023-06-14T05:46:23;21.60;1.00
11009;DHT22;5557;51.670;7.788;2023-06-14T05:48:55;21.70;1.00
11009;DHT22;5557;51.670;7.788;2023-06-14T05:51:23;21.50;1.00
11009;DHT22;5557;51.670;7.788;2023-06-14T05:53:52;21.50;1.00
11009;DHT22;5557;51.670;7.788;2023-06-14T05:56:19;21.60;1.00
11009;DHT22;5557;51.670;7.788;2023-06-14T05:58:46;21.40;1.00
11009;DHT22;5557;51.670;7.788;2023-06-14T06:01:15;21.60;1.00
11009;DHT22;5557;51.670;7.788;2023-06-14T06:03:42;21.50;1.00
11009;DHT22;5557;51.670;7.788;2023-06-14T06:06:13;21.30;1.00
11009;DHT22;5557;51.670;7.788;2023-06-14T06:08:43;21.20;1.00
11009;DHT22;5557;51.670;7.788;2023-06-14T06:11:10;21.40;1.00
11009;DHT22;5557;51.670;7.788;2023-06-14T06:13:37;21.30;1.00
11009;DHT22;5557;51.670;7.788;2023-06-14T06:16:05;21.50;1.00
11009;DHT22;5557;51.670;7.788;2023-06-14T06:18:34;22.10;1.00
11009;DHT22;5557;51.670;7.788;2023-06-14T06:21:01;22.20;1.00
11009;DHT22;5557;51.670;7.788;2023-06-14T06:23:30;22.20;1.00
11009;DHT22;5557;51.670;7.788;2023-06-14T06:25:57;21.70;1.00
11009;DHT22;5557;51.670;7.788;2023-06-14T06:28:25;21.30;1.00
11009;DHT22;5557;51.670;7.788;2023-06-14T06:30:52;21.30;1.00
11009;DHT22;5557;51.670;7.788;2023-06-14T06:33:21;21.20;1.00
11009;DHT22;5557;51.670;7.788;2023-06-14T06:35:48;21.10;1.00
11009;DHT22;5557;51.670;7.788;2023-06-14T06:38:15;21.20;1.00
11009;DHT22;5557;51.670;7.788;2023-06-14T06:40:42;21.10;1.00
11009;DHT22;5557;51.670;7.788;2023-06-14T06:43:09;21.30;1.00
11009;DHT22;5557;51.670;7.788;2023-06-14T06:45:40;21.60;1.00
11009;DHT22;5557;51.670;7.788;2023-06-14T06:48:07;21.40;1.00
11009;DHT22;5557;51.670;7.788;2023-06-14T06:50:37;21.20;1.00
11009;DHT22;5557;51.670;7.788;2023-06-14T06:53:04;20.70;1.00
11009;DHT22;5557;51.670;7.788;2023-06-14T06:55:32;20.60;1.00
11009;DHT22;5557;51.670;7.788;2023-06-14T06:57:59;20.80;1.00
11009;DHT22;5557;51.670;7.788;2023-06-14T07:00:27;21.00;1.00
11009;DHT22;5557;51.670;7.788;2023-06-14T07:02:54;21.00;1.00
11009;DHT22;5557;51.670;7.788;2023-06-14T07:05:22;20.70;1.00
11009;DHT22;5557;51.670;7.788;2023-06-14T07:07:49;20.70;1.00
11009;DHT22;5557;51.670;7.788;2023-06-14T07:10:16;20.70;1.00
11009;DHT22;5557;51.670;7.788;2023-06-14T07:12:43;20.60;1.00
11009;DHT22;5557;51.670;7.788;2023-06-14T07:15:12;20.60;1.00
11009;DHT22;5557;51.670;7.788;2023-06-14T07:17:43;20.70;1.00
11009;DHT22;5557;51.670;7.788;2023-06-14T07:20:11;20.70;1.00
11009;DHT22;5557;51.670;7.788;2023-06-14T07:22:41;20.80;1.00
11009;DHT22;5557;51.670;7.788;2023-06-14T07:25:12;20.80;1.00
11009;DHT22;5557;51.670;7.788;2023-06-14T07:27:42;20.80;1.00
11009;DHT22;5557;51.670;7.788;2023-06-14T07:30:11;21.00;1.00
11009;DHT22;5557;51.670;7.788;2023-06-14T07:32:39;20.90;1.00
11009;DHT22;5557;51.670;7.788;2023-06-14T07:35:07;21.20;1.00
11009;DHT22;5557;51.670;7.788;2023-06-14T07:37:34;21.50;1.00
11009;DHT22;5557;51.670;7.788;2023-06-14T07:40:03;21.80;1.00
11009;DHT22;5557;51.670;7.788;2023-06-14T07:42:34;21.40;1.00
11009;DHT22;5557;51.670;7.788;2023-06-14T07:45:03;21.00;1.00
11009;DHT22;5557;51.670;7.788;2023-06-14T07:47:31;21.10;1.00
11009;DHT22;5557;51.670;7.788;2023-06-14T07:49:58;21.10;1.00
11009;DHT22;5557;51.670;7.788;2023-06-14T07:52:25;21.10;1.00
11009;DHT22;5557;51.670;7.788;2023-06-14T07:54:52;21.30;1.00
11009;DHT22;5557;51.670;7.788;2023-06-14T07:57:20;21.60;1.00
11009;DHT22;5557;51.670;7.788;2023-06-14T07:59:47;21.80;1.00
11009;DHT22;5557;51.670;7.788;2023-06-14T08:02:15;22.10;1.00
11009;DHT22;5557;51.670;7.788;2023-06-14T08:04:42;22.30;1.00
11009;DHT22;5557;51.670;7.788;2023-06-14T08:07:09;22.10;1.00
11009;DHT22;5557;51.670;7.788;2023-06-14T08:09:37;22.00;1.00
11009;DHT22;5557;51.670;7.788;2023-06-14T08:12:09;21.80;1.00
11009;DHT22;5557;51.670;7.788;2023-06-14T08:14:39;21.40;1.00
11009;DHT22;5557;51.670;7.788;2023-06-14T08:17:06;21.50;1.00
11009;DHT22;5557;51.670;7.788;2023-06-14T08:19:33;21.70;1.00
11009;DHT22;5557;51.670;7.788;2023-06-14T08:22:00;22.20;1.00
11009;DHT22;5557;51.670;7.788;2023-06-14T08:24:28;21.90;1.00
11009;DHT22;5557;51.670;7.788;2023-06-14T08:26:56;21.60;1.00
11009;DHT22;5557;51.670;7.788;2023-06-14T08:29:25;21.70;1.00
11009;DHT22;5557;51.670;7.788;2023-06-14T08:34:56;22.40;1.00
11009;DHT22;5557;51.670;7.788;2023-06-14T08:37:43;22.20;1.00
11009;DHT22;5557;51.670;7.788;2023-06-14T08:40:23;22.20;1.00
11009;DHT22;5557;51.670;7.788;2023-06-14T08:42:52;22.30;1.00
11009;DHT22;5557;51.670;7.788;2023-06-14T08:45:20;22.60;1.00
11009;DHT22;5557;51.670;7.788;2023-06-14T08:47:52;23.00;1.00
11009;DHT22;5557;51.670;7.788;2023-06-14T08:50:26;22.90;1.00
11009;DHT22;5557;51.670;7.788;2023-06-14T08:53:00;23.00;1.00
11009;DHT22;5557;51.670;7.788;2023-06-14T08:55:31;23.20;1.00
11009;DHT22;5557;51.670;7.788;2023-06-14T08:58:03;23.50;1.00
11009;DHT22;5557;51.670;7.788;2023-06-14T09:00:30;23.20;1.00
11009;DHT22;5557;51.670;7.788;2023-06-14T09:03:00;23.00;1.00
11009;DHT22;5557;51.670;7.788;2023-06-14T09:05:28;22.50;1.00
11009;DHT22;5557;51.670;7.788;2023-06-14T09:07:55;22.90;1.00
11009;DHT22;5557;51.670;7.788;2023-06-14T09:10:31;23.00;1.00
11009;DHT22;5557;51.670;7.788;2023-06-14T09:13:03;22.90;1.00
11009;DHT22;5557;51.670;7.788;2023-06-14T09:15:31;22.80;1.00
11009;DHT22;5557;51.670;7.788;2023-06-14T09:18:01;23.10;1.00
11009;DHT22;5557;51.670;7.788;2023-06-14T09:20:30;23.90;1.00
11009;DHT22;5557;51.670;7.788;2023-06-14T09:23:00;23.70;1.00
11009;DHT22;5557;51.670;7.788;2023-06-14T09:25:28;23.10;1.00
11009;DHT22;5557;51.670;7.788;2023-06-14T09:27:57;22.90;1.00
11009;DHT22;5557;51.670;7.788;2023-06-14T09:30:24;23.20;1.00
11009;DHT22;5557;51.670;7.788;2023-06-14T09:32:51;22.90;1.00
11009;DHT22;5557;51.670;7.788;2023-06-14T09:35:18;22.70;1.00
11009;DHT22;5557;51.670;7.788;2023-06-14T09:37:46;22.60;1.00
11009;DHT22;5557;51.670;7.788;2023-06-14T09:40:20;22.50;1.00
11009;DHT22;5557;51.670;7.788;2023-06-14T09:42:47;22.40;1.00
11009;DHT22;5557;51.670;7.788;2023-06-14T09:45:15;22.20;1.00
11009;DHT22;5557;51.670;7.788;2023-06-14T09:47:51;22.10;1.00
11009;DHT22;5557;51.670;7.788;2023-06-14T09:50:34;22.20;1.00
11009;DHT22;5557;51.670;7.788;2023-06-14T09:53:06;22.20;1.00
11009;DHT22;5557;51.670;7.788;2023-06-14T09:55:37;22.20;1.00
11009;DHT22;5557;51.670;7.788;2023-06-14T09:58:06;22.40;1.00
11009;DHT22;5557;51.670;7.788;2023-06-14T10:00:35;22.40;1.00
11009;DHT22;5557;51.670;7.788;2023-06-14T10:03:16;22.30;1.00
11009;DHT22;5557;51.670;7.788;2023-06-14T10:05:48;22.80;1.00
11009;DHT22;5557;51.670;7.788;2023-06-14T10:08:19;22.80;1.00
11009;DHT22;5557;51.670;7.788;2023-06-14T10:10:50;22.80;1.00
11009;DHT22;5557;51.670;7.788;2023-06-14T10:13:18;22.40;1.00
11009;DHT22;5557;51.670;7.788;2023-06-14T10:15:54;22.20;1.00
11009;DHT22;5557;51.670;7.788;2023-06-14T10:18:50;22.30;1.00
11009;DHT22;5557;51.670;7.788;2023-06-14T10:21:44;22.50;1.00
11009;DHT22;5557;51.670;7.788;2023-06-14T10:24:16;22.30;1.00
11009;DHT22;5557;51.670;7.788;2023-06-14T10:26:52;22.50;1.00
11009;DHT22;5557;51.670;7.788;2023-06-14T10:29:21;22.70;1.00
11009;DHT22;5557;51.670;7.788;2023-06-14T10:31:50;22.40;1.00
11009;DHT22;5557;51.670;7.788;2023-06-14T10:34:31;22.30;1.00
11009;DHT22;5557;51.670;7.788;2023-06-14T10:37:16;22.20;1.00
11009;DHT22;5557;51.670;7.788;2023-06-14T10:39:44;22.60;1.00
11009;DHT22;5557;51.670;7.788;2023-06-14T10:42:13;22.50;1.00
11009;DHT22;5557;51.670;7.788;2023-06-14T10:44:49;22.60;1.00
11009;DHT22;5557;51.670;7.788;2023-06-14T10:47:45;22.80;1.00
11009;DHT22;5557;51.670;7.788;2023-06-14T10:50:15;22.50;1.00
11009;DHT22;5557;51.670;7.788;2023-06-14T10:52:46;22.60;1.00
11009;DHT22;5557;51.670;7.788;2023-06-14T10:55:17;22.80;1.00
11009;DHT22;5557;51.670;7.788;2023-06-14T10:57:53;22.60;1.00
11009;DHT22;5557;51.670;7.788;2023-06-14T11:00:27;22.40;1.00
11009;DHT22;5557;51.670;7.788;2023-06-14T11:03:23;22.30;1.00
11009;DHT22;5557;51.670;7.788;2023-06-14T11:05:56;22.70;1.00
11009;DHT22;5557;51.670;7.788;2023-06-14T11:11:33;22.70;1.00
11009;DHT22;5557;51.670;7.788;2023-06-14T11:14:03;22.50;1.00
11009;DHT22;5557;51.670;7.788;2023-06-14T11:16:31;22.80;1.00
11009;DHT22;5557;51.670;7.788;2023-06-14T11:19:03;23.00;1.00
11009;DHT22;5557;51.670;7.788;2023-06-14T11:21:31;22.70;1.00
11009;DHT22;5557;51.670;7.788;2023-06-14T11:24:00;22.90;1.00
11009;DHT22;5557;51.670;7.788;2023-06-14T11:26:31;22.90;1.00
11009;DHT22;5557;51.670;7.788;2023-06-14T11:29:00;23.10;1.00
11009;DHT22;5557;51.670;7.788;2023-06-14T11:31:28;23.00;1.00
11009;DHT22;5557;51.670;7.788;2023-06-14T11:34:00;22.80;1.00
11009;DHT22;5557;51.670;7.788;2023-06-14T11:36:33;22.60;1.00
11009;DHT22;5557;51.670;7.788;2023-06-14T11:39:04;22.70;1.00
11009;DHT22;5557;51.670;7.788;2023-06-14T11:41:40;22.80;1.00
11009;DHT22;5557;51.670;7.788;2023-06-14T11:44:07;23.30;1.00
11009;DHT22;5557;51.670;7.788;2023-06-14T11:46:35;23.10;1.00
11009;DHT22;5557;51.670;7.788;2023-06-14T11:49:03;22.90;1.00
11009;DHT22;5557;51.670;7.788;2023-06-14T11:51:33;22.80;1.00
11009;DHT22;5557;51.670;7.788;2023-06-14T11:54:03;23.00;1.00
11009;DHT22;5557;51.670;7.788;2023-06-14T11:56:31;23.10;1.00
11009;DHT22;5557;51.670;7.788;2023-06-14T11:58:59;23.10;1.00
11009;DHT22;5557;51.670;7.788;2023-06-14T12:01:27;23.20;1.00
11009;DHT22;5557;51.670;7.788;2023-06-14T12:03:56;23.30;1.00
11009;DHT22;5557;51.670;7.788;2023-06-14T12:06:30;23.20;1.00
11009;DHT22;5557;51.670;7.788;2023-06-14T12:09:06;22.90;1.00
11009;DHT22;5557;51.670;7.788;2023-06-14T12:11:39;22.80;1.00
11009;DHT22;5557;51.670;7.788;2023-06-14T12:14:08;22.80;1.00
11009;DHT22;5557;51.670;7.788;2023-06-14T12:16:38;22.80;1.00
11009;DHT22;5557;51.670;7.788;2023-06-14T12:19:16;22.70;1.00
11009;DHT22;5557;51.670;7.788;2023-06-14T12:21:46;22.40;1.00
11009;DHT22;5557;51.670;7.788;2023-06-14T12:24:17;22.60;1.00
11009;DHT22;5557;51.670;7.788;2023-06-14T12:26:44;22.80;1.00
11009;DHT22;5557;51.670;7.788;2023-06-14T12:29:12;22.60;1.00
11009;DHT22;5557;51.670;7.788;2023-06-14T12:31:40;22.60;1.00
11009;DHT22;5557;51.670;7.788;2023-06-14T12:34:08;22.80;1.00
11009;DHT22;5557;51.670;7.788;2023-06-14T12:36:35;22.80;1.00
11009;DHT22;5557;51.670;7.788;2023-06-14T12:39:08;22.70;1.00
11009;DHT22;5557;51.670;7.788;2023-06-14T12:41:36;22.50;1.00
11009;DHT22;5557;51.670;7.788;2023-06-14T12:44:04;22.60;1.00
11009;DHT22;5557;51.670;7.788;2023-06-14T12:46:31;22.70;1.00
11009;DHT22;5557;51.670;7.788;2023-06-14T12:48:59;22.70;1.00
11009;DHT22;5557;51.670;7.788;2023-06-14T12:51:26;22.70;1.00
11009;DHT22;5557;51.670;7.788;2023-06-14T12:53:53;22.90;1.00
11009;DHT22;5557;51.670;7.788;2023-06-14T12:56:20;23.00;1.00
11009;DHT22;5557;51.670;7.788;2023-06-14T12:58:50;22.90;1.00
11009;DHT22;5557;51.670;7.788;2023-06-14T13:01:18;23.00;1.00
11009;DHT22;5557;51.670;7.788;2023-06-14T13:03:48;22.90;1.00
11009;DHT22;5557;51.670;7.788;2023-06-14T13:06:17;23.10;1.00
11009;DHT22;5557;51.670;7.788;2023-06-14T13:08:44;23.20;1.00
11009;DHT22;5557;51.670;7.788;2023-06-14T13:11:12;23.10;1.00
11009;DHT22;5557;51.670;7.788;2023-06-14T13:13:39;23.10;1.00
11009;DHT22;5557;51.670;7.788;2023-06-14T13:16:06;22.80;1.00
11009;DHT22;5557;51.670;7.788;2023-06-14T13:18:33;22.70;1.00
11009;DHT22;5557;51.670;7.788;2023-06-14T13:21:01;22.50;1.00
11009;DHT22;5557;51.670;7.788;2023-06-14T13:23:28;22.40;1.00
11009;DHT22;5557;51.670;7.788;2023-06-14T13:25:55;22.60;1.00
11009;DHT22;5557;51.670;7.788;2023-06-14T13:28:22;22.70;1.00
11009;DHT22;5557;51.670;7.788;2023-06-14T13:30:49;22.70;1.00
11009;DHT22;5557;51.670;7.788;2023-06-14T13:33:16;22.70;1.00
11009;DHT22;5557;51.670;7.788;2023-06-14T13:35:43;22.80;1.00
11009;DHT22;5557;51.670;7.788;2023-06-14T13:38:10;22.80;1.00
11009;DHT22;5557;51.670;7.788;2023-06-14T13:40:38;22.90;1.00
11009;DHT22;5557;51.670;7.788;2023-06-14T13:43:07;22.90;1.00
11009;DHT22;5557;51.670;7.788;2023-06-14T13:45:34;23.10;1.00
11009;DHT22;5557;51.670;7.788;2023-06-14T13:48:02;22.90;1.00
11009;DHT22;5557;51.670;7.788;2023-06-14T13:50:29;23.00;1.00
11009;DHT22;5557;51.670;7.788;2023-06-14T13:52:55;22.90;1.00
11009;DHT22;5557;51.670;7.788;2023-06-14T13:55:24;23.10;1.00
11009;DHT22;5557;51.670;7.788;2023-06-14T13:57:51;22.90;1.00
11009;DHT22;5557;51.670;7.788;2023-06-14T14:00:18;22.90;1.00
11009;DHT22;5557;51.670;7.788;2023-06-14T14:02:49;23.10;1.00
11009;DHT22;5557;51.670;7.788;2023-06-14T14:05:17;23.20;1.00
11009;DHT22;5557;51.670;7.788;2023-06-14T14:07:44;23.40;1.00
11009;DHT22;5557;51.670;7.788;2023-06-14T14:10:11;23.40;1.00
11009;DHT22;5557;51.670;7.788;2023-06-14T14:12:40;23.40;1.00
11009;DHT22;5557;51.670;7.788;2023-06-14T14:15:08;23.10;1.00
11009;DHT22;5557;51.670;7.788;2023-06-14T14:17:40;23.00;1.00
11009;DHT22;5557;51.670;7.788;2023-06-14T14:20:07;23.10;1.00
11009;DHT22;5557;51.670;7.788;2023-06-14T14:22:35;23.00;1.00
11009;DHT22;5557;51.670;7.788;2023-06-14T14:25:02;23.10;1.00
11009;DHT22;5557;51.670;7.788;2023-06-14T14:27:29;23.10;1.00
11009;DHT22;5557;51.670;7.788;2023-06-14T14:29:56;23.20;1.00
11009;DHT22;5557;51.670;7.788;2023-06-14T14:32:23;23.40;1.00
11009;DHT22;5557;51.670;7.788;2023-06-14T14:34:50;23.30;1.00
11009;DHT22;5557;51.670;7.788;2023-06-14T14:37:17;23.40;1.00
11009;DHT22;5557;51.670;7.788;2023-06-14T14:39:45;23.50;1.00
11009;DHT22;5557;51.670;7.788;2023-06-14T14:42:12;23.20;1.00
11009;DHT22;5557;51.670;7.788;2023-06-14T14:44:39;23.10;1.00
11009;DHT22;5557;51.670;7.788;2023-06-14T14:47:07;23.10;1.00
11009;DHT22;5557;51.670;7.788;2023-06-14T14:49:34;23.50;1.00
11009;DHT22;5557;51.670;7.788;2023-06-14T14:52:01;23.50;1.00
11009;DHT22;5557;51.670;7.788;2023-06-14T14:54:47;23.10;1.00
11009;DHT22;5557;51.670;7.788;2023-06-14T14:57:14;22.80;1.00
11009;DHT22;5557;51.670;7.788;2023-06-14T14:59:41;22.80;1.00
11009;DHT22;5557;51.670;7.788;2023-06-14T15:02:08;23.00;1.00
11009;DHT22;5557;51.670;7.788;2023-06-14T15:04:35;23.20;1.00
11009;DHT22;5557;51.670;7.788;2023-06-14T15:07:03;23.10;1.00
11009;DHT22;5557;51.670;7.788;2023-06-14T15:09:30;23.20;1.00
11009;DHT22;5557;51.670;7.788;2023-06-14T15:11:59;23.40;1.00
11009;DHT22;5557;51.670;7.788;2023-06-14T15:14:26;23.50;1.00
11009;DHT22;5557;51.670;7.788;2023-06-14T15:16:53;23.60;1.00
11009;DHT22;5557;51.670;7.788;2023-06-14T15:19:20;23.50;1.00
11009;DHT22;5557;51.670;7.788;2023-06-14T15:21:47;23.60;1.00
11009;DHT22;5557;51.670;7.788;2023-06-14T15:24:14;23.40;1.00
11009;DHT22;5557;51.670;7.788;2023-06-14T15:26:52;23.40;1.00
11009;DHT22;5557;51.670;7.788;2023-06-14T15:29:20;23.40;1.00
11009;DHT22;5557;51.670;7.788;2023-06-14T15:31:47;23.60;1.00
11009;DHT22;5557;51.670;7.788;2023-06-14T15:34:14;23.40;1.00
11009;DHT22;5557;51.670;7.788;2023-06-14T15:36:41;23.50;1.00
11009;DHT22;5557;51.670;7.788;2023-06-14T15:39:08;23.50;1.00
11009;DHT22;5557;51.670;7.788;2023-06-14T15:41:35;23.40;1.00
11009;DHT22;5557;51.670;7.788;2023-06-14T15:44:02;23.30;1.00
11009;DHT22;5557;51.670;7.788;2023-06-14T15:46:29;23.30;1.00
11009;DHT22;5557;51.670;7.788;2023-06-14T15:48:56;23.30;1.00
11009;DHT22;5557;51.670;7.788;2023-06-14T15:51:23;23.40;1.00
11009;DHT22;5557;51.670;7.788;2023-06-14T15:53:50;23.50;1.00
11009;DHT22;5557;51.670;7.788;2023-06-14T15:56:18;23.70;1.00
11009;DHT22;5557;51.670;7.788;2023-06-14T15:58:46;23.70;1.00
11009;DHT22;5557;51.670;7.788;2023-06-14T16:01:13;23.40;1.00
11009;DHT22;5557;51.670;7.788;2023-06-14T16:03:39;23.20;1.00
11009;DHT22;5557;51.670;7.788;2023-06-14T16:06:07;23.20;1.00
11009;DHT22;5557;51.670;7.788;2023-06-14T16:08:34;23.00;1.00
11009;DHT22;5557;51.670;7.788;2023-06-14T16:11:07;22.80;1.00
11009;DHT22;5557;51.670;7.788;2023-06-14T16:13:35;22.80;1.00
11009;DHT22;5557;51.670;7.788;2023-06-14T16:16:02;22.80;1.00
11009;DHT22;5557;51.670;7.788;2023-06-14T16:18:29;22.80;1.00
11009;DHT22;5557;51.670;7.788;2023-06-14T16:20:56;22.90;1.00